sensor_id;sensor_type;location;lat;lon;timestamp;pressure;altitude;pressure_sealevel;temperature;humidity
46682;BME280;34101;53.430;-2.224;2022-11-03T00:00:59;155221.45;;;11.04;100.00
46682;BME280;34101;53.430;-2.224;2022-11-03T00:03:26;155217.90;;;11.03;100.00
46682;BME280;34101;53.430;-2.224;2022-11-03T00:05:53;155219.59;;;11.03;100.00
46682;BME280;34101;53.430;-2.224;2022-11-03T00:08:21;155226.39;;;11.06;100.00
46682;BME280;34101;53.430;-2.224;2022-11-03T00:10:48;155201.16;;;10.96;100.00
46682;BME280;34101;53.430;-2.224;2022-11-03T00:13:15;155183.69;;;10.89;100.00
46682;BME280;34101;53.430;-2.224;2022-11-03T00:15:47;155188.46;;;10.91;100.00
46682;BME280;34101;53.430;-2.224;2022-11-03T00:18:15;155180.21;;;10.87;100.00
46682;BME280;34101;53.430;-2.224;2022-11-03T00:20:42;155190.32;;;10.91;100.00
46682;BME280;34101;53.430;-2.224;2022-11-03T00:23:10;155181.67;;;10.88;100.00
46682;BME280;34101;53.430;-2.224;2022-11-03T00:25:37;155181.91;;;10.88;100.00
46682;BME280;34101;53.430;-2.224;2022-11-03T00:28:04;155214.82;;;11.01;100.00
46682;BME280;34101;53.430;-2.224;2022-11-03T00:30:31;155225.09;;;11.05;100.00
46682;BME280;34101;53.430;-2.224;2022-11-03T00:32:59;155237.63;;;11.10;100.00
46682;BME280;34101;53.430;-2.224;2022-11-03T00:35:26;155222.75;;;11.04;100.00
46682;BME280;34101;53.430;-2.224;2022-11-03T00:37:54;155221.21;;;11.04;100.00
46682;BME280;34101;53.430;-2.224;2022-11-03T00:40:21;155170.92;;;10.84;100.00
46682;BME280;34101;53.430;-2.224;2022-11-03T00:42:49;155193.15;;;10.93;100.00
46682;BME280;34101;53.430;-2.224;2022-11-03T00:45:16;155208.44;;;10.99;100.00
46682;BME280;34101;53.430;-2.224;2022-11-03T00:47:43;155195.25;;;10.93;100.00
46682;BME280;34101;53.430;-2.224;2022-11-03T00:50:11;155205.69;;;10.98;100.00
46682;BME280;34101;53.430;-2.224;2022-11-03T00:52:39;155220.97;;;11.04;100.00
46682;BME280;34101;53.430;-2.224;2022-11-03T00:55:06;155230.51;;;11.08;100.00
46682;BME280;34101;53.430;-2.224;2022-11-03T00:57:33;155227.84;;;11.07;100.00
46682;BME280;34101;53.430;-2.224;2022-11-03T01:00:00;155216.60;;;11.02;100.00
46682;BME280;34101;53.430;-2.224;2022-11-03T01:02:28;155205.04;;;10.97;100.00
46682;BME280;34101;53.430;-2.224;2022-11-03T01:04:55;155209.57;;;10.99;100.00
46682;BME280;34101;53.430;-2.224;2022-11-03T01:07:23;155209.16;;;10.99;100.00
46682;BME280;34101;53.430;-2.224;2022-11-03T01:09:50;155218.46;;;11.03;100.00
46682;BME280;34101;53.430;-2.224;2022-11-03T01:12:18;155190.00;;;10.91;100.00
46682;BME280;34101;53.430;-2.224;2022-11-03T01:14:47;155189.35;;;10.91;100.00
46682;BME280;34101;53.430;-2.224;2022-11-03T01:17:16;155181.75;;;10.88;100.00
46682;BME280;34101;53.430;-2.224;2022-11-03T01:19:44;155183.37;;;10.89;100.00
46682;BME280;34101;53.430;-2.224;2022-11-03T01:22:11;155194.28;;;10.93;100.00
46682;BME280;34101;53.430;-2.224;2022-11-03T01:24:40;155205.44;;;10.98;100.00
46682;BME280;34101;53.430;-2.224;2022-11-03T01:27:07;155208.84;;;10.99;100.00
46682;BME280;34101;53.430;-2.224;2022-11-03T01:29:35;155189.67;;;10.91;100.00
46682;BME280;34101;53.430;-2.224;2022-11-03T01:32:02;155168.33;;;10.83;100.00
46682;BME280;34101;53.430;-2.224;2022-11-03T01:34:30;155177.22;;;10.86;100.00
46682;BME280;34101;53.430;-2.224;2022-11-03T01:36:57;155182.07;;;10.88;100.00
46682;BME280;34101;53.430;-2.224;2022-11-03T01:39:25;155153.69;;;10.77;100.00
46682;BME280;34101;53.430;-2.224;2022-11-03T01:41:52;155159.19;;;10.79;100.00
46682;BME280;34101;53.430;-2.224;2022-11-03T01:44:28;155160.24;;;10.79;100.00
46682;BME280;34101;53.430;-2.224;2022-11-03T01:47:00;155171.48;;;10.84;100.00
46682;BME280;34101;53.430;-2.224;2022-11-03T01:49:35;155172.29;;;10.84;100.00
46682;BME280;34101;53.430;-2.224;2022-11-03T01:52:07;155169.46;;;10.83;100.00
46682;BME280;34101;53.430;-2.224;2022-11-03T01:54:37;155168.57;;;10.83;100.00
46682;BME280;34101;53.430;-2.224;2022-11-03T01:57:09;155171.00;;;10.84;100.00
46682;BME280;34101;53.430;-2.224;2022-11-03T01:59:38;155164.20;;;10.81;100.00
46682;BME280;34101;53.430;-2.224;2022-11-03T02:02:06;155155.80;;;10.78;100.00
46682;BME280;34101;53.430;-2.224;2022-11-03T02:04:34;155140.84;;;10.72;100.00
46682;BME280;34101;53.430;-2.224;2022-11-03T02:07:10;155137.85;;;10.70;100.00
46682;BME280;34101;53.430;-2.224;2022-11-03T02:09:41;155119.82;;;10.63;100.00
46682;BME280;34101;53.430;-2.224;2022-11-03T02:12:09;155107.85;;;10.58;100.00
46682;BME280;34101;53.430;-2.224;2022-11-03T02:14:40;155106.56;;;10.58;100.00
46682;BME280;34101;53.430;-2.224;2022-11-03T02:17:11;155097.18;;;10.54;100.00
46682;BME280;34101;53.430;-2.224;2022-11-03T02:19:44;155101.06;;;10.55;100.00
46682;BME280;34101;53.430;-2.224;2022-11-03T02:22:29;155092.49;;;10.52;100.00
46682;BME280;34101;53.430;-2.224;2022-11-03T02:25:04;155092.90;;;10.52;100.00
46682;BME280;34101;53.430;-2.224;2022-11-03T02:27:34;155089.50;;;10.51;100.00
46682;BME280;34101;53.430;-2.224;2022-11-03T02:30:02;155085.30;;;10.49;100.00
46682;BME280;34101;53.430;-2.224;2022-11-03T02:32:34;155086.11;;;10.49;100.00
46682;BME280;34101;53.430;-2.224;2022-11-03T02:35:11;155076.57;;;10.46;100.00
46682;BME280;34101;53.430;-2.224;2022-11-03T02:37:46;155073.66;;;10.44;100.00
46682;BME280;34101;53.430;-2.224;2022-11-03T02:40:17;155077.86;;;10.46;100.00
46682;BME280;34101;53.430;-2.224;2022-11-03T02:42:50;155075.60;;;10.45;100.00
46682;BME280;34101;53.430;-2.224;2022-11-03T02:45:21;155074.38;;;10.45;100.00
46682;BME280;34101;53.430;-2.224;2022-11-03T02:47:53;155067.76;;;10.42;100.00
46682;BME280;34101;53.430;-2.224;2022-11-03T02:50:26;155064.52;;;10.41;100.00
46682;BME280;34101;53.430;-2.224;2022-11-03T02:52:54;155058.30;;;10.38;100.00
46682;BME280;34101;53.430;-2.224;2022-11-03T02:55:31;155049.00;;;10.35;100.00
46682;BME280;34101;53.430;-2.224;2022-11-03T02:58:05;155049.24;;;10.35;100.00
46682;BME280;34101;53.430;-2.224;2022-11-03T03:00:41;155047.47;;;10.34;100.00
46682;BME280;34101;53.430;-2.224;2022-11-03T03:03:17;155044.96;;;10.33;100.00
46682;BME280;34101;53.430;-2.224;2022-11-03T03:05:49;155037.12;;;10.30;100.00
46682;BME280;34101;53.430;-2.224;2022-11-03T03:09:40;155020.87;;;10.23;100.00
46682;BME280;34101;53.430;-2.224;2022-11-03T03:12:09;155014.41;;;10.21;100.00
46682;BME280;34101;53.430;-2.224;2022-11-03T03:14:40;154997.84;;;10.14;100.00
46682;BME280;34101;53.430;-2.224;2022-11-03T03:17:13;154986.52;;;10.09;100.00
46682;BME280;34101;53.430;-2.224;2022-11-03T03:19:49;154987.57;;;10.10;100.00
46682;BME280;34101;53.430;-2.224;2022-11-03T03:22:24;154982.64;;;10.08;100.00
46682;BME280;34101;53.430;-2.224;2022-11-03T03:24:58;154958.16;;;9.98;100.00
46682;BME280;34101;53.430;-2.224;2022-11-03T03:27:28;154954.12;;;9.96;100.00
46682;BME280;34101;53.430;-2.224;2022-11-03T03:30:00;154964.22;;;10.00;100.00
46682;BME280;34101;53.430;-2.224;2022-11-03T03:32:32;154962.28;;;10.00;100.00
46682;BME280;34101;53.430;-2.224;2022-11-03T03:35:01;154964.78;;;10.01;100.00
46682;BME280;34101;53.430;-2.224;2022-11-03T03:37:31;154970.36;;;10.03;100.00
46682;BME280;34101;53.430;-2.224;2022-11-03T03:40:02;154972.78;;;10.04;100.00
46682;BME280;34101;53.430;-2.224;2022-11-03T03:42:33;154976.99;;;10.05;100.00
46682;BME280;34101;53.430;-2.224;2022-11-03T03:45:03;154971.81;;;10.03;100.00
46682;BME280;34101;53.430;-2.224;2022-11-03T03:47:33;154968.02;;;10.02;100.00
46682;BME280;34101;53.430;-2.224;2022-11-03T03:50:01;154969.31;;;10.02;100.00
46682;BME280;34101;53.430;-2.224;2022-11-03T03:52:29;154969.47;;;10.02;100.00
46682;BME280;34101;53.430;-2.224;2022-11-03T03:55:00;154966.56;;;10.01;100.00
46682;BME280;34101;53.430;-2.224;2022-11-03T03:57:30;154962.76;;;10.00;100.00
46682;BME280;34101;53.430;-2.224;2022-11-03T03:59:57;154968.74;;;10.02;100.00
46682;BME280;34101;53.430;-2.224;2022-11-03T04:02:24;154967.94;;;10.02;100.00
46682;BME280;34101;53.430;-2.224;2022-11-03T04:04:52;154969.23;;;10.02;100.00
46682;BME280;34101;53.430;-2.224;2022-11-03T04:07:19;154968.02;;;10.02;100.00
46682;BME280;34101;53.430;-2.224;2022-11-03T04:09:46;154952.98;;;9.96;100.00
46682;BME280;34101;53.430;-2.224;2022-11-03T04:12:14;154957.83;;;9.98;100.00
46682;BME280;34101;53.430;-2.224;2022-11-03T04:14:41;154948.06;;;9.94;100.00
46682;BME280;34101;53.430;-2.224;2022-11-03T04:17:17;154947.25;;;9.94;100.00
46682;BME280;34101;53.430;-2.224;2022-11-03T04:19:45;154943.45;;;9.92;100.00
46682;BME280;34101;53.430;-2.224;2022-11-03T04:22:12;154930.36;;;9.87;100.00
46682;BME280;34101;53.430;-2.224;2022-11-03T04:24:40;154927.93;;;9.86;100.00
46682;BME280;34101;53.430;-2.224;2022-11-03T04:27:22;154916.30;;;9.81;100.00
46682;BME280;34101;53.430;-2.224;2022-11-03T04:29:56;154896.66;;;9.73;100.00
46682;BME280;34101;53.430;-2.224;2022-11-03T04:32:23;154909.43;;;9.78;100.00
46682;BME280;34101;53.430;-2.224;2022-11-03T04:34:51;154911.61;;;9.79;100.00
46682;BME280;34101;53.430;-2.224;2022-11-03T04:37:19;154894.56;;;9.72;100.00
46682;BME280;34101;53.430;-2.224;2022-11-03T04:39:46;154913.47;;;9.80;100.00
46682;BME280;34101;53.430;-2.224;2022-11-03T04:42:16;154914.92;;;9.80;100.00
46682;BME280;34101;53.430;-2.224;2022-11-03T04:44:45;154900.22;;;9.75;100.00
46682;BME280;34101;53.430;-2.224;2022-11-03T04:47:14;154906.60;;;9.77;100.00
46682;BME280;34101;53.430;-2.224;2022-11-03T04:49:43;154915.00;;;9.81;100.00
46682;BME280;34101;53.430;-2.224;2022-11-03T04:52:14;154927.77;;;9.86;100.00
46682;BME280;34101;53.430;-2.224;2022-11-03T04:54:43;154905.63;;;9.77;100.00
46682;BME280;34101;53.430;-2.224;2022-11-03T04:57:13;154924.86;;;9.84;100.00
46682;BME280;34101;53.430;-2.224;2022-11-03T04:59:42;154930.92;;;9.87;100.00
46682;BME280;34101;53.430;-2.224;2022-11-03T05:02:13;154934.16;;;9.88;100.00
46682;BME280;34101;53.430;-2.224;2022-11-03T05:04:41;154929.47;;;9.86;100.00
46682;BME280;34101;53.430;-2.224;2022-11-03T05:07:21;154916.46;;;9.81;100.00
46682;BME280;34101;53.430;-2.224;2022-11-03T05:09:50;154921.23;;;9.83;100.00
46682;BME280;34101;53.430;-2.224;2022-11-03T05:12:18;154912.18;;;9.79;100.00
46682;BME280;34101;53.430;-2.224;2022-11-03T05:14:46;154917.27;;;9.81;100.00
46682;BME280;34101;53.430;-2.224;2022-11-03T05:17:20;154913.71;;;9.80;100.00
46682;BME280;34101;53.430;-2.224;2022-11-03T05:19:48;154922.68;;;9.84;100.00
46682;BME280;34101;53.430;-2.224;2022-11-03T05:22:18;154922.76;;;9.84;100.00
46682;BME280;34101;53.430;-2.224;2022-11-03T05:24:49;154918.16;;;9.82;100.00
46682;BME280;34101;53.430;-2.224;2022-11-03T05:27:20;154919.85;;;9.82;100.00
46682;BME280;34101;53.430;-2.224;2022-11-03T05:29:49;154928.34;;;9.86;100.00
46682;BME280;34101;53.430;-2.224;2022-11-03T05:32:22;154920.98;;;9.83;100.00
46682;BME280;34101;53.430;-2.224;2022-11-03T05:34:51;154914.52;;;9.80;100.00
46682;BME280;34101;53.430;-2.224;2022-11-03T05:37:24;154901.75;;;9.75;100.00
46682;BME280;34101;53.430;-2.224;2022-11-03T05:39:54;154887.94;;;9.70;100.00
46682;BME280;34101;53.430;-2.224;2022-11-03T05:42:29;154882.76;;;9.68;100.00
46682;BME280;34101;53.430;-2.224;2022-11-03T05:44:57;154897.39;;;9.73;100.00
46682;BME280;34101;53.430;-2.224;2022-11-03T05:47:31;154908.14;;;9.78;100.00
46682;BME280;34101;53.430;-2.224;2022-11-03T05:50:13;154909.99;;;9.79;100.00
46682;BME280;34101;53.430;-2.224;2022-11-03T05:52:43;154910.48;;;9.79;100.00
46682;BME280;34101;53.430;-2.224;2022-11-03T05:55:21;154895.21;;;9.73;100.00
46682;BME280;34101;53.430;-2.224;2022-11-03T05:57:51;154865.47;;;9.61;100.00
46682;BME280;34101;53.430;-2.224;2022-11-03T06:00:26;154863.78;;;9.60;100.00
46682;BME280;34101;53.430;-2.224;2022-11-03T06:02:54;154878.73;;;9.66;100.00
46682;BME280;34101;53.430;-2.224;2022-11-03T06:05:22;154873.55;;;9.64;100.00
46682;BME280;34101;53.430;-2.224;2022-11-03T06:07:53;154872.67;;;9.63;100.00
46682;BME280;34101;53.430;-2.224;2022-11-03T06:10:25;154879.21;;;9.66;100.00
46682;BME280;34101;53.430;-2.224;2022-11-03T06:12:55;154877.84;;;9.66;100.00
46682;BME280;34101;53.430;-2.224;2022-11-03T06:15:29;154881.71;;;9.67;100.00
46682;BME280;34101;53.430;-2.224;2022-11-03T06:17:57;154874.77;;;9.64;100.00
46682;BME280;34101;53.430;-2.224;2022-11-03T06:20:25;154874.44;;;9.64;100.00
46682;BME280;34101;53.430;-2.224;2022-11-03T06:22:54;154871.94;;;9.63;100.00
46682;BME280;34101;53.430;-2.224;2022-11-03T06:25:27;154867.82;;;9.62;100.00
46682;BME280;34101;53.430;-2.224;2022-11-03T06:28:02;154865.56;;;9.61;100.00
46682;BME280;34101;53.430;-2.224;2022-11-03T06:30:32;154870.40;;;9.63;100.00
46682;BME280;34101;53.430;-2.224;2022-11-03T06:33:03;154868.87;;;9.62;100.00
46682;BME280;34101;53.430;-2.224;2022-11-03T06:35:34;154865.23;;;9.60;100.00
46682;BME280;34101;53.430;-2.224;2022-11-03T06:38:01;154865.72;;;9.61;100.00
46682;BME280;34101;53.430;-2.224;2022-11-03T06:40:33;154865.39;;;9.61;100.00
46682;BME280;34101;53.430;-2.224;2022-11-03T06:43:12;154863.21;;;9.60;100.00
46682;BME280;34101;53.430;-2.224;2022-11-03T06:45:48;154861.19;;;9.59;100.00
46682;BME280;34101;53.430;-2.224;2022-11-03T06:48:24;154856.83;;;9.57;100.00
46682;BME280;34101;53.430;-2.224;2022-11-03T06:50:52;154847.86;;;9.53;100.00
46682;BME280;34101;53.430;-2.224;2022-11-03T06:53:22;154840.67;;;9.51;100.00
46682;BME280;34101;53.430;-2.224;2022-11-03T06:55:51;154835.82;;;9.49;100.00
46682;BME280;34101;53.430;-2.224;2022-11-03T06:58:30;154839.06;;;9.50;100.00
46682;BME280;34101;53.430;-2.224;2022-11-03T07:01:01;154847.30;;;9.53;100.00
46682;BME280;34101;53.430;-2.224;2022-11-03T07:03:30;154856.26;;;9.57;100.00
46682;BME280;34101;53.430;-2.224;2022-11-03T07:06:00;154861.60;;;9.59;100.00
46682;BME280;34101;53.430;-2.224;2022-11-03T07:08:30;154864.99;;;9.60;100.00
46682;BME280;34101;53.430;-2.224;2022-11-03T07:11:03;154862.00;;;9.59;100.00
46682;BME280;34101;53.430;-2.224;2022-11-03T07:13:33;154858.28;;;9.58;100.00
46682;BME280;34101;53.430;-2.224;2022-11-03T07:16:01;154860.06;;;9.58;100.00
46682;BME280;34101;53.430;-2.224;2022-11-03T07:18:32;154863.29;;;9.60;100.00
46682;BME280;34101;53.430;-2.224;2022-11-03T07:21:05;154868.22;;;9.62;100.00
46682;BME280;34101;53.430;-2.224;2022-11-03T07:23:33;154871.05;;;9.63;100.00
46682;BME280;34101;53.430;-2.224;2022-11-03T07:26:01;154862.97;;;9.60;100.00
46682;BME280;34101;53.430;-2.224;2022-11-03T07:28:34;154864.67;;;9.60;100.00
46682;BME280;34101;53.430;-2.224;2022-11-03T07:31:12;154861.68;;;9.59;100.00
46682;BME280;34101;53.430;-2.224;2022-11-03T07:33:42;154859.98;;;9.58;100.00
46682;BME280;34101;53.430;-2.224;2022-11-03T07:36:11;154857.40;;;9.57;100.00
46682;BME280;34101;53.430;-2.224;2022-11-03T07:38:42;154856.99;;;9.57;100.00
46682;BME280;34101;53.430;-2.224;2022-11-03T07:41:17;154858.20;;;9.58;100.00
46682;BME280;34101;53.430;-2.224;2022-11-03T07:43:58;154861.11;;;9.59;100.00
46682;BME280;34101;53.430;-2.224;2022-11-03T07:46:26;154862.81;;;9.59;100.00
46682;BME280;34101;53.430;-2.224;2022-11-03T07:48:55;154865.80;;;9.61;100.00
46682;BME280;34101;53.430;-2.224;2022-11-03T07:51:24;154867.01;;;9.61;100.00
46682;BME280;34101;53.430;-2.224;2022-11-03T07:53:53;154868.14;;;9.62;100.00
46682;BME280;34101;53.430;-2.224;2022-11-03T07:56:23;154873.88;;;9.64;100.00
46682;BME280;34101;53.430;-2.224;2022-11-03T07:58:53;154879.45;;;9.66;100.00
46682;BME280;34101;53.430;-2.224;2022-11-03T08:01:25;154888.82;;;9.70;100.00
46682;BME280;34101;53.430;-2.224;2022-11-03T08:03:56;154890.84;;;9.71;100.00
46682;BME280;34101;53.430;-2.224;2022-11-03T08:06:24;154888.34;;;9.70;100.00
46682;BME280;34101;53.430;-2.224;2022-11-03T08:08:52;154889.79;;;9.70;100.00
46682;BME280;34101;53.430;-2.224;2022-11-03T08:11:19;154893.35;;;9.72;100.00
46682;BME280;34101;53.430;-2.224;2022-11-03T08:13:47;154897.07;;;9.73;100.00
46682;BME280;34101;53.430;-2.224;2022-11-03T08:16:14;154901.27;;;9.75;100.00
46682;BME280;34101;53.430;-2.224;2022-11-03T08:18:41;154902.32;;;9.75;100.00
46682;BME280;34101;53.430;-2.224;2022-11-03T08:21:09;154902.72;;;9.76;100.00
46682;BME280;34101;53.430;-2.224;2022-11-03T08:23:36;154909.75;;;9.78;100.00
46682;BME280;34101;53.430;-2.224;2022-11-03T08:26:04;154920.10;;;9.83;100.00
46682;BME280;34101;53.430;-2.224;2022-11-03T08:28:31;154923.49;;;9.84;100.00
46682;BME280;34101;53.430;-2.224;2022-11-03T08:30:59;154928.26;;;9.86;100.00
46682;BME280;34101;53.430;-2.224;2022-11-03T08:33:27;154928.50;;;9.86;100.00
46682;BME280;34101;53.430;-2.224;2022-11-03T08:35:54;154932.38;;;9.88;100.00
46682;BME280;34101;53.430;-2.224;2022-11-03T08:38:22;154922.03;;;9.83;100.00
46682;BME280;34101;53.430;-2.224;2022-11-03T08:40:49;154915.81;;;9.81;100.00
46682;BME280;34101;53.430;-2.224;2022-11-03T08:43:16;154904.50;;;9.76;100.00
46682;BME280;34101;53.430;-2.224;2022-11-03T08:45:43;154893.75;;;9.72;100.00
46682;BME280;34101;53.430;-2.224;2022-11-03T08:48:11;154909.27;;;9.78;100.00
46682;BME280;34101;53.430;-2.224;2022-11-03T08:50:39;154931.65;;;9.87;100.00
46682;BME280;34101;53.430;-2.224;2022-11-03T08:53:06;154957.59;;;9.98;100.00
46682;BME280;34101;53.430;-2.224;2022-11-03T08:55:34;154987.49;;;10.10;100.00
46682;BME280;34101;53.430;-2.224;2022-11-03T08:58:01;155014.25;;;10.21;100.00
46682;BME280;34101;53.430;-2.224;2022-11-03T09:00:30;155044.23;;;10.33;100.00
46682;BME280;34101;53.430;-2.224;2022-11-03T09:02:57;155075.68;;;10.45;100.00
46682;BME280;34101;53.430;-2.224;2022-11-03T09:05:24;155330.40;;;11.48;100.00
46682;BME280;34101;53.430;-2.224;2022-11-03T09:07:52;155423.35;;;11.85;100.00
46682;BME280;34101;53.430;-2.224;2022-11-03T09:10:19;155579.21;;;12.48;100.00
46682;BME280;34101;53.430;-2.224;2022-11-03T09:12:46;155789.62;;;13.33;100.00
46682;BME280;34101;53.430;-2.224;2022-11-03T09:15:13;155977.94;;;14.08;100.00
46682;BME280;34101;53.430;-2.224;2022-11-03T09:17:41;156101.43;;;14.58;100.00
46682;BME280;34101;53.430;-2.224;2022-11-03T09:20:08;156284.70;;;15.32;100.00
46682;BME280;34101;53.430;-2.224;2022-11-03T09:22:36;156397.48;;;15.77;100.00
46682;BME280;34101;53.430;-2.224;2022-11-03T09:25:04;156490.51;;;16.14;100.00
46682;BME280;34101;53.430;-2.224;2022-11-03T09:27:32;156627.12;;;16.69;100.00
46682;BME280;34101;53.430;-2.224;2022-11-03T09:29:59;156764.67;;;17.24;100.00
46682;BME280;34101;53.430;-2.224;2022-11-03T09:32:27;156754.45;;;17.20;100.00
46682;BME280;34101;53.430;-2.224;2022-11-03T09:34:54;156766.30;;;17.25;100.00
46682;BME280;34101;53.430;-2.224;2022-11-03T09:37:21;156757.53;;;17.21;100.00
46682;BME280;34101;53.430;-2.224;2022-11-03T09:39:49;156720.77;;;17.07;100.00
46682;BME280;34101;53.430;-2.224;2022-11-03T09:42:17;156684.65;;;16.92;100.00
46682;BME280;34101;53.430;-2.224;2022-11-03T09:44:45;156686.03;;;16.93;100.00
46682;BME280;34101;53.430;-2.224;2022-11-03T09:47:19;156708.92;;;17.02;95.05
46682;BME280;34101;53.430;-2.224;2022-11-03T09:49:49;156631.99;;;16.71;91.42
46682;BME280;34101;53.430;-2.224;2022-11-03T09:52:20;156684.00;;;16.92;88.76
46682;BME280;34101;53.430;-2.224;2022-11-03T09:54:48;156637.59;;;16.73;90.06
46682;BME280;34101;53.430;-2.224;2022-11-03T09:57:15;156462.45;;;16.03;90.29
46682;BME280;34101;53.430;-2.224;2022-11-03T09:59:44;156442.09;;;15.95;90.04
46682;BME280;34101;53.430;-2.224;2022-11-03T10:02:19;156454.74;;;16.00;85.45
46682;BME280;34101;53.430;-2.224;2022-11-03T10:04:48;156281.05;;;15.30;85.99
46682;BME280;34101;53.430;-2.224;2022-11-03T10:07:15;156089.68;;;14.53;88.89
46682;BME280;34101;53.430;-2.224;2022-11-03T10:09:44;155967.89;;;14.04;89.91
46682;BME280;34101;53.430;-2.224;2022-11-03T10:12:12;155872.07;;;13.66;90.98
46682;BME280;34101;53.430;-2.224;2022-11-03T10:14:40;155819.18;;;13.45;94.18
46682;BME280;34101;53.430;-2.224;2022-11-03T10:17:14;155789.13;;;13.32;94.83
46682;BME280;34101;53.430;-2.224;2022-11-03T10:19:43;155935.00;;;13.91;90.42
46682;BME280;34101;53.430;-2.224;2022-11-03T10:22:11;156211.49;;;15.02;83.72
46682;BME280;34101;53.430;-2.224;2022-11-03T10:24:39;156322.64;;;15.47;77.18
46682;BME280;34101;53.430;-2.224;2022-11-03T10:27:20;156295.48;;;15.36;79.21
46682;BME280;34101;53.430;-2.224;2022-11-03T10:30:04;156278.94;;;15.29;81.26
46682;BME280;34101;53.430;-2.224;2022-11-03T10:32:33;156220.25;;;15.06;79.47
46682;BME280;34101;53.430;-2.224;2022-11-03T10:35:00;156226.00;;;15.08;79.20
46682;BME280;34101;53.430;-2.224;2022-11-03T10:37:27;156215.14;;;15.04;79.94
46682;BME280;34101;53.430;-2.224;2022-11-03T10:39:55;156147.14;;;14.76;80.00
46682;BME280;34101;53.430;-2.224;2022-11-03T10:42:24;156102.97;;;14.59;82.68
46682;BME280;34101;53.430;-2.224;2022-11-03T10:44:53;156073.96;;;14.47;81.85
46682;BME280;34101;53.430;-2.224;2022-11-03T10:47:24;156031.98;;;14.30;81.90
46682;BME280;34101;53.430;-2.224;2022-11-03T10:49:52;155988.23;;;14.12;81.99
46682;BME280;34101;53.430;-2.224;2022-11-03T10:52:20;155934.60;;;13.91;84.02
46682;BME280;34101;53.430;-2.224;2022-11-03T10:54:49;155906.17;;;13.79;85.25
46682;BME280;34101;53.430;-2.224;2022-11-03T10:57:17;155904.47;;;13.79;86.15
46682;BME280;34101;53.430;-2.224;2022-11-03T10:59:47;155872.80;;;13.66;87.42
46682;BME280;34101;53.430;-2.224;2022-11-03T11:02:17;155875.14;;;13.67;86.85
46682;BME280;34101;53.430;-2.224;2022-11-03T11:04:46;155981.34;;;14.10;85.03
46682;BME280;34101;53.430;-2.224;2022-11-03T11:07:20;156149.73;;;14.77;79.00
46682;BME280;34101;53.430;-2.224;2022-11-03T11:09:48;156247.81;;;15.17;77.96
46682;BME280;34101;53.430;-2.224;2022-11-03T11:12:17;156340.97;;;15.54;75.95
46682;BME280;34101;53.430;-2.224;2022-11-03T11:14:55;156415.49;;;15.84;74.98
46682;BME280;34101;53.430;-2.224;2022-11-03T11:17:57;156508.68;;;16.22;74.94
46682;BME280;34101;53.430;-2.224;2022-11-03T11:20:30;156616.41;;;16.65;72.62
46682;BME280;34101;53.430;-2.224;2022-11-03T11:23:43;156671.27;;;16.87;69.34
46682;BME280;34101;53.430;-2.224;2022-11-03T11:26:31;156685.06;;;16.92;66.52
46682;BME280;34101;53.430;-2.224;2022-11-03T11:30:05;156605.14;;;16.60;66.36
46682;BME280;34101;53.430;-2.224;2022-11-03T11:33:21;156507.95;;;16.21;67.96
46682;BME280;34101;53.430;-2.224;2022-11-03T11:36:24;156543.40;;;16.35;66.58
46682;BME280;34101;53.430;-2.224;2022-11-03T11:38:56;156481.34;;;16.11;67.72
46682;BME280;34101;53.430;-2.224;2022-11-03T11:42:28;156515.17;;;16.24;69.36
46682;BME280;34101;53.430;-2.224;2022-11-03T11:44:58;156619.25;;;16.66;64.87
46682;BME280;34101;53.430;-2.224;2022-11-03T11:47:45;156681.57;;;16.91;64.27
46682;BME280;34101;53.430;-2.224;2022-11-03T11:50:25;156584.53;;;16.52;65.71
46682;BME280;34101;53.430;-2.224;2022-11-03T11:52:57;156568.06;;;16.45;66.16
46682;BME280;34101;53.430;-2.224;2022-11-03T11:55:30;156591.26;;;16.55;66.57
46682;BME280;34101;53.430;-2.224;2022-11-03T11:58:00;156672.00;;;16.87;64.29
46682;BME280;34101;53.430;-2.224;2022-11-03T12:00:30;156493.19;;;16.15;64.53
46682;BME280;34101;53.430;-2.224;2022-11-03T12:03:01;156554.76;;;16.40;65.50
46682;BME280;34101;53.430;-2.224;2022-11-03T12:05:31;156565.87;;;16.44;63.50
46682;BME280;34101;53.430;-2.224;2022-11-03T12:07:59;156483.94;;;16.12;65.17
46682;BME280;34101;53.430;-2.224;2022-11-03T12:10:28;156547.13;;;16.37;65.10
46682;BME280;34101;53.430;-2.224;2022-11-03T12:12:57;156461.55;;;16.03;65.77
46682;BME280;34101;53.430;-2.224;2022-11-03T12:15:57;156441.52;;;15.95;64.21
46682;BME280;34101;53.430;-2.224;2022-11-03T12:18:29;156353.21;;;15.59;65.89
46682;BME280;34101;53.430;-2.224;2022-11-03T12:20:57;156309.26;;;15.41;66.39
46682;BME280;34101;53.430;-2.224;2022-11-03T12:23:34;156267.35;;;15.25;66.17
46682;BME280;34101;53.430;-2.224;2022-11-03T12:26:01;156269.70;;;15.26;66.97
46682;BME280;34101;53.430;-2.224;2022-11-03T12:28:32;156309.34;;;15.41;63.49
46682;BME280;34101;53.430;-2.224;2022-11-03T12:31:01;156304.48;;;15.40;62.66
46682;BME280;34101;53.430;-2.224;2022-11-03T12:33:28;156286.40;;;15.32;64.38
46682;BME280;34101;53.430;-2.224;2022-11-03T12:35:56;156316.40;;;15.44;62.34
46682;BME280;34101;53.430;-2.224;2022-11-03T12:38:23;156292.16;;;15.35;63.32
46682;BME280;34101;53.430;-2.224;2022-11-03T12:40:50;156235.00;;;15.12;65.82
46682;BME280;34101;53.430;-2.224;2022-11-03T12:43:18;156254.94;;;15.20;65.13
46682;BME280;34101;53.430;-2.224;2022-11-03T12:45:45;156237.92;;;15.13;64.23
46682;BME280;34101;53.430;-2.224;2022-11-03T12:48:13;156277.24;;;15.29;63.30
46682;BME280;34101;53.430;-2.224;2022-11-03T12:50:40;156241.32;;;15.14;65.57
46682;BME280;34101;53.430;-2.224;2022-11-03T12:53:07;156253.40;;;15.19;62.98
46682;BME280;34101;53.430;-2.224;2022-11-03T12:55:35;156258.67;;;15.21;63.34